Austin, Arkansas
Current Conditions -  °F | °C
As of 12:58 PM on Monday 20 Oct 2014 (Local Time) from KLRF Reporting Station
Overcast Overcast  
Wind Chill: 19°   Ceiling: 3700
Heat Index: 19°   Visibility: 10mi
Dew Point: 11°   Wind: 6mph
Humidity: 60%   Direction: NA
Pressure: 30.08"   Gusts: NA
Location:  35°N, 91.98°W
Report Text: KLRF 201758Z AUTO VRB05KT 10SM OVC037 19/11 A3008 RMK AO2 SLP188 T01930113 10198 20082 58009
Loading
Personal Weather Stations






























Interactive Weather Map
Tropical Storm Tracking
New forecast layout! Learn more

10-Day Weather Forecast

Advertisements
Track Severe Weather on mobile